sensor_id;sensor_type;location;lat;lon;timestamp;P1;durP1;ratioP1;P2;durP2;ratioP2
77099;SDS011;66602;48.922;2.414;2023-03-19T00:00:55;3.08;;;1.80;;
77099;SDS011;66602;48.922;2.414;2023-03-19T00:03:22;1.42;;;1.35;;
77099;SDS011;66602;48.922;2.414;2023-03-19T00:05:51;3.55;;;2.13;;
77099;SDS011;66602;48.922;2.414;2023-03-19T00:08:24;1.45;;;1.35;;
77099;SDS011;66602;48.922;2.414;2023-03-19T00:11:16;2.03;;;1.52;;
77099;SDS011;66602;48.922;2.414;2023-03-19T00:13:41;2.00;;;1.90;;
77099;SDS011;66602;48.922;2.414;2023-03-19T00:16:12;2.22;;;1.98;;
77099;SDS011;66602;48.922;2.414;2023-03-19T00:21:07;2.28;;;1.70;;
77099;SDS011;66602;48.922;2.414;2023-03-19T00:23:43;2.90;;;2.00;;
77099;SDS011;66602;48.922;2.414;2023-03-19T00:26:09;1.73;;;1.63;;
77099;SDS011;66602;48.922;2.414;2023-03-19T00:28:39;2.15;;;1.80;;
77099;SDS011;66602;48.922;2.414;2023-03-19T00:31:18;7.75;;;1.80;;
77099;SDS011;66602;48.922;2.414;2023-03-19T00:33:44;2.08;;;1.98;;
77099;SDS011;66602;48.922;2.414;2023-03-19T00:36:10;2.58;;;1.90;;
77099;SDS011;66602;48.922;2.414;2023-03-19T00:38:43;1.98;;;1.67;;
77099;SDS011;66602;48.922;2.414;2023-03-19T00:41:11;3.67;;;2.17;;
77099;SDS011;66602;48.922;2.414;2023-03-19T00:43:41;1.80;;;1.70;;
77099;SDS011;66602;48.922;2.414;2023-03-19T00:46:43;1.85;;;1.52;;
77099;SDS011;66602;48.922;2.414;2023-03-19T00:49:36;2.40;;;1.50;;
77099;SDS011;66602;48.922;2.414;2023-03-19T00:52:18;1.52;;;1.50;;
77099;SDS011;66602;48.922;2.414;2023-03-19T00:54:50;4.68;;;1.70;;
77099;SDS011;66602;48.922;2.414;2023-03-19T00:57:18;2.63;;;1.80;;
77099;SDS011;66602;48.922;2.414;2023-03-19T00:59:45;2.20;;;1.73;;
77099;SDS011;66602;48.922;2.414;2023-03-19T01:02:12;2.60;;;1.55;;
77099;SDS011;66602;48.922;2.414;2023-03-19T01:04:43;2.83;;;2.20;;
77099;SDS011;66602;48.922;2.414;2023-03-19T01:07:16;2.88;;;1.75;;
77099;SDS011;66602;48.922;2.414;2023-03-19T01:09:45;1.90;;;1.80;;
77099;SDS011;66602;48.922;2.414;2023-03-19T01:12:11;1.77;;;1.67;;
77099;SDS011;66602;48.922;2.414;2023-03-19T01:14:53;3.83;;;2.10;;
77099;SDS011;66602;48.922;2.414;2023-03-19T01:17:19;4.13;;;1.83;;
77099;SDS011;66602;48.922;2.414;2023-03-19T01:19:50;2.42;;;2.28;;
77099;SDS011;66602;48.922;2.414;2023-03-19T01:37:37;1.95;;;1.85;;
77099;SDS011;66602;48.922;2.414;2023-03-19T01:40:04;2.05;;;1.90;;
77099;SDS011;66602;48.922;2.414;2023-03-19T01:42:33;2.35;;;2.10;;
77099;SDS011;66602;48.922;2.414;2023-03-19T01:45:01;3.15;;;2.95;;
77099;SDS011;66602;48.922;2.414;2023-03-19T01:49:58;1.85;;;1.77;;
77099;SDS011;66602;48.922;2.414;2023-03-19T01:52:26;2.17;;;1.88;;
77099;SDS011;66602;48.922;2.414;2023-03-19T01:54:54;2.60;;;2.40;;
77099;SDS011;66602;48.922;2.414;2023-03-19T01:57:26;3.90;;;2.63;;
77099;SDS011;66602;48.922;2.414;2023-03-19T01:59:55;2.35;;;2.25;;
77099;SDS011;66602;48.922;2.414;2023-03-19T02:02:31;3.10;;;2.17;;
77099;SDS011;66602;48.922;2.414;2023-03-19T02:05:03;2.45;;;2.10;;
77099;SDS011;66602;48.922;2.414;2023-03-19T02:07:32;1.83;;;1.73;;
77099;SDS011;66602;48.922;2.414;2023-03-19T02:10:00;3.83;;;2.08;;
77099;SDS011;66602;48.922;2.414;2023-03-19T02:12:32;3.50;;;2.00;;
77099;SDS011;66602;48.922;2.414;2023-03-19T02:14:58;2.58;;;2.38;;
77099;SDS011;66602;48.922;2.414;2023-03-19T02:17:23;3.92;;;2.55;;
77099;SDS011;66602;48.922;2.414;2023-03-19T02:26:08;2.50;;;2.30;;
77099;SDS011;66602;48.922;2.414;2023-03-19T02:28:39;3.00;;;2.28;;
77099;SDS011;66602;48.922;2.414;2023-03-19T02:31:12;2.65;;;2.42;;
77099;SDS011;66602;48.922;2.414;2023-03-19T02:34:00;2.67;;;2.47;;
77099;SDS011;66602;48.922;2.414;2023-03-19T02:37:23;2.88;;;2.67;;
77099;SDS011;66602;48.922;2.414;2023-03-19T02:39:57;3.22;;;2.53;;
77099;SDS011;66602;48.922;2.414;2023-03-19T02:42:33;2.88;;;2.67;;
77099;SDS011;66602;48.922;2.414;2023-03-19T02:44:59;2.17;;;1.95;;
77099;SDS011;66602;48.922;2.414;2023-03-19T02:47:25;2.58;;;2.47;;
77099;SDS011;66602;48.922;2.414;2023-03-19T02:49:51;2.50;;;2.25;;
77099;SDS011;66602;48.922;2.414;2023-03-19T02:52:17;2.17;;;2.08;;
77099;SDS011;66602;48.922;2.414;2023-03-19T02:54:43;2.30;;;2.20;;
77099;SDS011;66602;48.922;2.414;2023-03-19T02:57:09;5.53;;;2.50;;
77099;SDS011;66602;48.922;2.414;2023-03-19T02:59:35;2.40;;;2.20;;
77099;SDS011;66602;48.922;2.414;2023-03-19T03:02:00;2.30;;;2.10;;
77099;SDS011;66602;48.922;2.414;2023-03-19T03:04:26;2.58;;;2.33;;
77099;SDS011;66602;48.922;2.414;2023-03-19T03:06:51;2.72;;;2.53;;
77099;SDS011;66602;48.922;2.414;2023-03-19T03:09:17;2.35;;;2.20;;
77099;SDS011;66602;48.922;2.414;2023-03-19T03:11:43;2.30;;;2.20;;
77099;SDS011;66602;48.922;2.414;2023-03-19T03:14:08;2.67;;;2.47;;
77099;SDS011;66602;48.922;2.414;2023-03-19T03:16:35;3.10;;;2.42;;
77099;SDS011;66602;48.922;2.414;2023-03-19T03:19:01;2.30;;;2.20;;
77099;SDS011;66602;48.922;2.414;2023-03-19T03:21:28;3.28;;;2.00;;
77099;SDS011;66602;48.922;2.414;2023-03-19T03:23:54;3.42;;;2.22;;
77099;SDS011;66602;48.922;2.414;2023-03-19T03:26:24;2.25;;;2.15;;
77099;SDS011;66602;48.922;2.414;2023-03-19T03:28:49;3.53;;;2.20;;
77099;SDS011;66602;48.922;2.414;2023-03-19T03:31:16;2.72;;;2.20;;
77099;SDS011;66602;48.922;2.414;2023-03-19T03:33:42;2.38;;;2.17;;
77099;SDS011;66602;48.922;2.414;2023-03-19T03:36:07;2.15;;;2.10;;
77099;SDS011;66602;48.922;2.414;2023-03-19T03:38:33;2.97;;;2.28;;
77099;SDS011;66602;48.922;2.414;2023-03-19T03:40:58;2.42;;;2.20;;
77099;SDS011;66602;48.922;2.414;2023-03-19T03:43:24;2.05;;;1.95;;
77099;SDS011;66602;48.922;2.414;2023-03-19T03:45:50;2.28;;;2.08;;
77099;SDS011;66602;48.922;2.414;2023-03-19T03:48:15;2.33;;;2.10;;
77099;SDS011;66602;48.922;2.414;2023-03-19T03:50:41;3.00;;;2.40;;
77099;SDS011;66602;48.922;2.414;2023-03-19T03:53:07;3.15;;;2.30;;
77099;SDS011;66602;48.922;2.414;2023-03-19T03:55:33;2.30;;;2.10;;
77099;SDS011;66602;48.922;2.414;2023-03-19T03:58:00;3.28;;;2.15;;
77099;SDS011;66602;48.922;2.414;2023-03-19T04:00:27;3.17;;;2.17;;
77099;SDS011;66602;48.922;2.414;2023-03-19T04:02:53;2.47;;;2.28;;
77099;SDS011;66602;48.922;2.414;2023-03-19T04:05:19;2.03;;;1.90;;
77099;SDS011;66602;48.922;2.414;2023-03-19T04:07:44;3.55;;;2.17;;
77099;SDS011;66602;48.922;2.414;2023-03-19T04:10:11;2.83;;;2.22;;
77099;SDS011;66602;48.922;2.414;2023-03-19T04:12:37;3.53;;;2.08;;
77099;SDS011;66602;48.922;2.414;2023-03-19T04:15:03;2.33;;;2.10;;
77099;SDS011;66602;48.922;2.414;2023-03-19T04:17:30;2.75;;;2.50;;
77099;SDS011;66602;48.922;2.414;2023-03-19T04:19:56;2.40;;;2.30;;
77099;SDS011;66602;48.922;2.414;2023-03-19T04:22:21;4.80;;;2.25;;
77099;SDS011;66602;48.922;2.414;2023-03-19T04:24:48;3.15;;;1.92;;
77099;SDS011;66602;48.922;2.414;2023-03-19T04:27:13;3.83;;;2.72;;
77099;SDS011;66602;48.922;2.414;2023-03-19T04:29:39;5.63;;;2.80;;
77099;SDS011;66602;48.922;2.414;2023-03-19T04:32:10;2.30;;;2.17;;
77099;SDS011;66602;48.922;2.414;2023-03-19T04:34:42;3.05;;;2.83;;
77099;SDS011;66602;48.922;2.414;2023-03-19T04:37:09;4.70;;;2.70;;
77099;SDS011;66602;48.922;2.414;2023-03-19T04:39:36;2.85;;;2.65;;
77099;SDS011;66602;48.922;2.414;2023-03-19T04:42:02;3.17;;;2.97;;
77099;SDS011;66602;48.922;2.414;2023-03-19T04:44:28;4.88;;;3.40;;
77099;SDS011;66602;48.922;2.414;2023-03-19T04:46:55;3.42;;;3.22;;
77099;SDS011;66602;48.922;2.414;2023-03-19T04:49:21;4.18;;;3.13;;
77099;SDS011;66602;48.922;2.414;2023-03-19T04:51:46;4.47;;;3.50;;
77099;SDS011;66602;48.922;2.414;2023-03-19T04:54:11;4.25;;;3.85;;
77099;SDS011;66602;48.922;2.414;2023-03-19T04:56:37;4.32;;;3.97;;
77099;SDS011;66602;48.922;2.414;2023-03-19T04:59:03;3.78;;;3.58;;
77099;SDS011;66602;48.922;2.414;2023-03-19T05:01:29;5.25;;;4.68;;
77099;SDS011;66602;48.922;2.414;2023-03-19T05:03:55;5.40;;;4.07;;
77099;SDS011;66602;48.922;2.414;2023-03-19T05:06:21;7.82;;;4.68;;
77099;SDS011;66602;48.922;2.414;2023-03-19T05:08:46;5.03;;;4.38;;
77099;SDS011;66602;48.922;2.414;2023-03-19T05:11:12;4.40;;;4.10;;
77099;SDS011;66602;48.922;2.414;2023-03-19T05:13:38;4.60;;;4.40;;
77099;SDS011;66602;48.922;2.414;2023-03-19T05:16:03;5.53;;;4.50;;
77099;SDS011;66602;48.922;2.414;2023-03-19T05:18:29;4.03;;;3.80;;
77099;SDS011;66602;48.922;2.414;2023-03-19T05:20:54;4.50;;;4.15;;
77099;SDS011;66602;48.922;2.414;2023-03-19T05:23:20;5.03;;;4.63;;
77099;SDS011;66602;48.922;2.414;2023-03-19T05:25:47;8.27;;;4.10;;
77099;SDS011;66602;48.922;2.414;2023-03-19T05:28:13;5.10;;;4.72;;
77099;SDS011;66602;48.922;2.414;2023-03-19T05:30:38;5.25;;;4.88;;
77099;SDS011;66602;48.922;2.414;2023-03-19T05:33:04;5.68;;;5.22;;
77099;SDS011;66602;48.922;2.414;2023-03-19T05:35:30;6.72;;;5.78;;
77099;SDS011;66602;48.922;2.414;2023-03-19T05:37:57;6.60;;;6.20;;
77099;SDS011;66602;48.922;2.414;2023-03-19T05:40:23;6.85;;;6.25;;
77099;SDS011;66602;48.922;2.414;2023-03-19T05:42:49;10.35;;;7.00;;
77099;SDS011;66602;48.922;2.414;2023-03-19T05:45:15;10.88;;;7.10;;
77099;SDS011;66602;48.922;2.414;2023-03-19T05:47:41;9.73;;;7.05;;
77099;SDS011;66602;48.922;2.414;2023-03-19T05:50:09;8.75;;;6.90;;
77099;SDS011;66602;48.922;2.414;2023-03-19T05:52:35;7.97;;;7.07;;
77099;SDS011;66602;48.922;2.414;2023-03-19T05:55:01;7.82;;;7.10;;
77099;SDS011;66602;48.922;2.414;2023-03-19T05:57:27;8.13;;;7.35;;
77099;SDS011;66602;48.922;2.414;2023-03-19T05:59:52;12.73;;;8.05;;
77099;SDS011;66602;48.922;2.414;2023-03-19T06:02:18;9.95;;;8.20;;
77099;SDS011;66602;48.922;2.414;2023-03-19T06:04:43;9.25;;;8.35;;
77099;SDS011;66602;48.922;2.414;2023-03-19T06:07:09;9.75;;;8.20;;
77099;SDS011;66602;48.922;2.414;2023-03-19T06:09:34;8.68;;;8.00;;
77099;SDS011;66602;48.922;2.414;2023-03-19T06:12:00;8.93;;;8.02;;
77099;SDS011;66602;48.922;2.414;2023-03-19T06:14:26;14.70;;;10.77;;
77099;SDS011;66602;48.922;2.414;2023-03-19T06:16:51;13.27;;;8.40;;
77099;SDS011;66602;48.922;2.414;2023-03-19T06:19:17;9.00;;;8.15;;
77099;SDS011;66602;48.922;2.414;2023-03-19T06:21:43;8.55;;;7.55;;
77099;SDS011;66602;48.922;2.414;2023-03-19T06:24:09;11.65;;;7.72;;
77099;SDS011;66602;48.922;2.414;2023-03-19T06:26:34;11.95;;;7.22;;
77099;SDS011;66602;48.922;2.414;2023-03-19T06:29:02;7.90;;;7.20;;
77099;SDS011;66602;48.922;2.414;2023-03-19T06:31:28;7.63;;;6.88;;
77099;SDS011;66602;48.922;2.414;2023-03-19T06:33:54;9.57;;;7.00;;
77099;SDS011;66602;48.922;2.414;2023-03-19T06:36:21;9.40;;;7.20;;
77099;SDS011;66602;48.922;2.414;2023-03-19T06:38:48;7.50;;;6.90;;
77099;SDS011;66602;48.922;2.414;2023-03-19T06:41:13;6.93;;;6.28;;
77099;SDS011;66602;48.922;2.414;2023-03-19T06:43:40;6.85;;;6.05;;
77099;SDS011;66602;48.922;2.414;2023-03-19T06:46:06;7.28;;;6.32;;
77099;SDS011;66602;48.922;2.414;2023-03-19T06:48:33;8.75;;;7.13;;
77099;SDS011;66602;48.922;2.414;2023-03-19T06:50:59;6.65;;;6.05;;
77099;SDS011;66602;48.922;2.414;2023-03-19T06:53:25;11.40;;;7.00;;
77099;SDS011;66602;48.922;2.414;2023-03-19T06:55:51;11.48;;;7.20;;
77099;SDS011;66602;48.922;2.414;2023-03-19T06:58:17;6.43;;;6.03;;
77099;SDS011;66602;48.922;2.414;2023-03-19T07:00:42;7.30;;;6.65;;
77099;SDS011;66602;48.922;2.414;2023-03-19T07:03:12;7.25;;;6.60;;
77099;SDS011;66602;48.922;2.414;2023-03-19T07:05:37;9.18;;;7.15;;
77099;SDS011;66602;48.922;2.414;2023-03-19T07:08:09;10.23;;;7.43;;
77099;SDS011;66602;48.922;2.414;2023-03-19T07:10:56;6.65;;;6.00;;
77099;SDS011;66602;48.922;2.414;2023-03-19T07:13:22;9.52;;;6.65;;
77099;SDS011;66602;48.922;2.414;2023-03-19T07:15:53;6.53;;;6.03;;
77099;SDS011;66602;48.922;2.414;2023-03-19T07:18:20;9.15;;;6.68;;
77099;SDS011;66602;48.922;2.414;2023-03-19T07:20:45;6.57;;;6.03;;
77099;SDS011;66602;48.922;2.414;2023-03-19T07:23:12;6.65;;;5.93;;
77099;SDS011;66602;48.922;2.414;2023-03-19T07:25:38;6.13;;;5.82;;
77099;SDS011;66602;48.922;2.414;2023-03-19T07:28:04;6.53;;;5.43;;
77099;SDS011;66602;48.922;2.414;2023-03-19T07:30:33;4.70;;;4.40;;
77099;SDS011;66602;48.922;2.414;2023-03-19T07:33:00;10.20;;;5.68;;
77099;SDS011;66602;48.922;2.414;2023-03-19T07:35:28;4.50;;;4.13;;
77099;SDS011;66602;48.922;2.414;2023-03-19T07:37:55;5.78;;;4.28;;
77099;SDS011;66602;48.922;2.414;2023-03-19T07:40:21;5.55;;;4.13;;
77099;SDS011;66602;48.922;2.414;2023-03-19T07:42:47;5.82;;;4.13;;
77099;SDS011;66602;48.922;2.414;2023-03-19T07:45:13;4.38;;;3.97;;
77099;SDS011;66602;48.922;2.414;2023-03-19T07:47:39;3.67;;;3.45;;
77099;SDS011;66602;48.922;2.414;2023-03-19T07:50:05;3.88;;;3.58;;
77099;SDS011;66602;48.922;2.414;2023-03-19T07:52:31;3.85;;;3.47;;
77099;SDS011;66602;48.922;2.414;2023-03-19T07:54:56;7.28;;;4.10;;
77099;SDS011;66602;48.922;2.414;2023-03-19T07:57:23;7.03;;;3.00;;
77099;SDS011;66602;48.922;2.414;2023-03-19T07:59:52;6.30;;;2.80;;
77099;SDS011;66602;48.922;2.414;2023-03-19T08:02:18;4.75;;;3.20;;
77099;SDS011;66602;48.922;2.414;2023-03-19T08:04:44;2.95;;;2.67;;
77099;SDS011;66602;48.922;2.414;2023-03-19T08:07:09;2.75;;;2.55;;
77099;SDS011;66602;48.922;2.414;2023-03-19T08:09:36;5.05;;;2.50;;
77099;SDS011;66602;48.922;2.414;2023-03-19T08:12:03;4.10;;;2.67;;
77099;SDS011;66602;48.922;2.414;2023-03-19T08:14:30;4.00;;;2.50;;
77099;SDS011;66602;48.922;2.414;2023-03-19T08:16:56;4.07;;;2.53;;
77099;SDS011;66602;48.922;2.414;2023-03-19T08:19:22;2.25;;;2.15;;
77099;SDS011;66602;48.922;2.414;2023-03-19T08:21:56;2.95;;;2.58;;
77099;SDS011;66602;48.922;2.414;2023-03-19T08:24:22;5.85;;;2.20;;
77099;SDS011;66602;48.922;2.414;2023-03-19T08:26:58;7.32;;;2.40;;
77099;SDS011;66602;48.922;2.414;2023-03-19T08:29:29;5.35;;;2.30;;
77099;SDS011;66602;48.922;2.414;2023-03-19T08:31:59;3.28;;;2.17;;
77099;SDS011;66602;48.922;2.414;2023-03-19T08:34:28;5.90;;;2.40;;
77099;SDS011;66602;48.922;2.414;2023-03-19T08:37:12;4.82;;;2.53;;
77099;SDS011;66602;48.922;2.414;2023-03-19T08:40:08;2.67;;;2.47;;
77099;SDS011;66602;48.922;2.414;2023-03-19T08:42:34;7.40;;;4.10;;
77099;SDS011;66602;48.922;2.414;2023-03-19T08:45:03;2.83;;;2.40;;
77099;SDS011;66602;48.922;2.414;2023-03-19T08:47:30;3.92;;;2.53;;
77099;SDS011;66602;48.922;2.414;2023-03-19T08:49:57;5.18;;;2.63;;
77099;SDS011;66602;48.922;2.414;2023-03-19T08:52:22;8.38;;;3.13;;
77099;SDS011;66602;48.922;2.414;2023-03-19T08:54:48;9.30;;;3.35;;
77099;SDS011;66602;48.922;2.414;2023-03-19T08:57:14;4.05;;;3.75;;
77099;SDS011;66602;48.922;2.414;2023-03-19T08:59:52;4.35;;;4.03;;
77099;SDS011;66602;48.922;2.414;2023-03-19T09:02:36;6.05;;;4.15;;
77099;SDS011;66602;48.922;2.414;2023-03-19T09:05:12;4.75;;;4.18;;
77099;SDS011;66602;48.922;2.414;2023-03-19T09:07:39;5.03;;;4.57;;
77099;SDS011;66602;48.922;2.414;2023-03-19T09:10:05;5.20;;;3.70;;
77099;SDS011;66602;48.922;2.414;2023-03-19T09:12:31;5.25;;;3.88;;
77099;SDS011;66602;48.922;2.414;2023-03-19T09:14:57;8.68;;;4.05;;
77099;SDS011;66602;48.922;2.414;2023-03-19T09:17:22;6.25;;;4.10;;
77099;SDS011;66602;48.922;2.414;2023-03-19T09:19:48;5.28;;;4.35;;
77099;SDS011;66602;48.922;2.414;2023-03-19T09:22:14;8.20;;;4.47;;
77099;SDS011;66602;48.922;2.414;2023-03-19T09:24:40;6.35;;;4.70;;
77099;SDS011;66602;48.922;2.414;2023-03-19T09:27:05;5.45;;;4.15;;
77099;SDS011;66602;48.922;2.414;2023-03-19T09:29:31;6.20;;;3.90;;
77099;SDS011;66602;48.922;2.414;2023-03-19T09:31:56;6.10;;;4.30;;
77099;SDS011;66602;48.922;2.414;2023-03-19T09:34:22;10.90;;;4.43;;
77099;SDS011;66602;48.922;2.414;2023-03-19T09:36:48;5.93;;;4.18;;
77099;SDS011;66602;48.922;2.414;2023-03-19T09:39:13;5.20;;;3.85;;
77099;SDS011;66602;48.922;2.414;2023-03-19T09:41:42;5.10;;;3.92;;
77099;SDS011;66602;48.922;2.414;2023-03-19T09:44:33;3.85;;;3.53;;
77099;SDS011;66602;48.922;2.414;2023-03-19T09:47:07;4.63;;;3.30;;
77099;SDS011;66602;48.922;2.414;2023-03-19T09:49:48;3.42;;;3.13;;
77099;SDS011;66602;48.922;2.414;2023-03-19T09:54:56;3.38;;;3.17;;
77099;SDS011;66602;48.922;2.414;2023-03-19T09:57:25;4.50;;;3.28;;
77099;SDS011;66602;48.922;2.414;2023-03-19T09:59:53;3.17;;;2.92;;
77099;SDS011;66602;48.922;2.414;2023-03-19T10:02:27;5.90;;;3.45;;
77099;SDS011;66602;48.922;2.414;2023-03-19T10:16:58;8.82;;;4.00;;
77099;SDS011;66602;48.922;2.414;2023-03-19T10:19:30;3.90;;;3.60;;
77099;SDS011;66602;48.922;2.414;2023-03-19T10:22:23;3.67;;;3.38;;
77099;SDS011;66602;48.922;2.414;2023-03-19T10:24:57;4.60;;;4.30;;
77099;SDS011;66602;48.922;2.414;2023-03-19T10:27:25;5.65;;;5.25;;
77099;SDS011;66602;48.922;2.414;2023-03-19T10:29:52;6.28;;;5.50;;
77099;SDS011;66602;48.922;2.414;2023-03-19T10:34:52;4.53;;;4.20;;
77099;SDS011;66602;48.922;2.414;2023-03-19T10:37:22;4.00;;;3.75;;
77099;SDS011;66602;48.922;2.414;2023-03-19T10:39:51;6.88;;;4.28;;
77099;SDS011;66602;48.922;2.414;2023-03-19T10:45:20;5.28;;;4.22;;
77099;SDS011;66602;48.922;2.414;2023-03-19T10:47:55;6.75;;;3.95;;
77099;SDS011;66602;48.922;2.414;2023-03-19T10:50:26;4.07;;;3.72;;
77099;SDS011;66602;48.922;2.414;2023-03-19T10:55:37;5.30;;;4.40;;
77099;SDS011;66602;48.922;2.414;2023-03-19T10:58:13;5.97;;;4.22;;
77099;SDS011;66602;48.922;2.414;2023-03-19T11:00:41;5.57;;;5.15;;
77099;SDS011;66602;48.922;2.414;2023-03-19T11:03:31;5.30;;;4.85;;
77099;SDS011;66602;48.922;2.414;2023-03-19T11:06:16;4.65;;;3.38;;
77099;SDS011;66602;48.922;2.414;2023-03-19T11:08:58;3.53;;;3.30;;
77099;SDS011;66602;48.922;2.414;2023-03-19T11:11:41;3.30;;;3.10;;
77099;SDS011;66602;48.922;2.414;2023-03-19T11:14:08;3.25;;;3.05;;
77099;SDS011;66602;48.922;2.414;2023-03-19T11:19:31;3.20;;;3.03;;
77099;SDS011;66602;48.922;2.414;2023-03-19T11:22:20;3.30;;;2.65;;
77099;SDS011;66602;48.922;2.414;2023-03-19T11:25:00;3.25;;;2.53;;
77099;SDS011;66602;48.922;2.414;2023-03-19T11:27:38;3.03;;;2.70;;
77099;SDS011;66602;48.922;2.414;2023-03-19T11:30:16;2.90;;;2.72;;
77099;SDS011;66602;48.922;2.414;2023-03-19T11:33:00;2.90;;;2.70;;
77099;SDS011;66602;48.922;2.414;2023-03-19T11:38:24;3.05;;;2.85;;
77099;SDS011;66602;48.922;2.414;2023-03-19T11:46:44;2.50;;;2.00;;
77099;SDS011;66602;48.922;2.414;2023-03-19T11:57:02;1.80;;;1.50;;
77099;SDS011;66602;48.922;2.414;2023-03-19T12:04:59;2.58;;;2.20;;
77099;SDS011;66602;48.922;2.414;2023-03-19T12:18:22;1.67;;;1.35;;
77099;SDS011;66602;48.922;2.414;2023-03-19T12:21:17;2.63;;;1.23;;
77099;SDS011;66602;48.922;2.414;2023-03-19T12:23:58;2.65;;;1.60;;
77099;SDS011;66602;48.922;2.414;2023-03-19T12:26:38;1.05;;;1.05;;
77099;SDS011;66602;48.922;2.414;2023-03-19T12:29:23;1.10;;;1.10;;
77099;SDS011;66602;48.922;2.414;2023-03-19T12:34:27;3.53;;;1.50;;
77099;SDS011;66602;48.922;2.414;2023-03-19T12:39:31;1.13;;;0.85;;
77099;SDS011;66602;48.922;2.414;2023-03-19T12:42:01;1.17;;;0.90;;
77099;SDS011;66602;48.922;2.414;2023-03-19T12:44:36;1.30;;;1.20;;
77099;SDS011;66602;48.922;2.414;2023-03-19T12:47:11;1.10;;;1.05;;
77099;SDS011;66602;48.922;2.414;2023-03-19T12:49:45;1.33;;;1.23;;
77099;SDS011;66602;48.922;2.414;2023-03-19T12:52:21;2.20;;;1.23;;
77099;SDS011;66602;48.922;2.414;2023-03-19T12:55:16;2.08;;;1.27;;
77099;SDS011;66602;48.922;2.414;2023-03-19T12:57:46;2.38;;;1.02;;
77099;SDS011;66602;48.922;2.414;2023-03-19T13:00:25;1.77;;;1.65;;
77099;SDS011;66602;48.922;2.414;2023-03-19T13:03:03;1.30;;;1.23;;
77099;SDS011;66602;48.922;2.414;2023-03-19T13:08:42;1.98;;;1.83;;
77099;SDS011;66602;48.922;2.414;2023-03-19T13:11:34;2.47;;;1.10;;
77099;SDS011;66602;48.922;2.414;2023-03-19T13:14:48;2.45;;;1.20;;
77099;SDS011;66602;48.922;2.414;2023-03-19T13:19:44;5.70;;;2.15;;
77099;SDS011;66602;48.922;2.414;2023-03-19T13:22:20;1.48;;;1.30;;
77099;SDS011;66602;48.922;2.414;2023-03-19T13:24:57;3.92;;;1.42;;
77099;SDS011;66602;48.922;2.414;2023-03-19T13:30:00;1.50;;;1.38;;
77099;SDS011;66602;48.922;2.414;2023-03-19T13:32:37;2.50;;;2.30;;
77099;SDS011;66602;48.922;2.414;2023-03-19T13:35:17;2.78;;;2.55;;
77099;SDS011;66602;48.922;2.414;2023-03-19T13:38:44;2.92;;;1.77;;
77099;SDS011;66602;48.922;2.414;2023-03-19T13:40:59;2.72;;;1.92;;
77099;SDS011;66602;48.922;2.414;2023-03-19T13:53:40;1.30;;;1.20;;
77099;SDS011;66602;48.922;2.414;2023-03-19T13:56:16;1.35;;;1.25;;
77099;SDS011;66602;48.922;2.414;2023-03-19T13:58:43;1.42;;;1.30;;
77099;SDS011;66602;48.922;2.414;2023-03-19T14:03:51;1.27;;;1.17;;
77099;SDS011;66602;48.922;2.414;2023-03-19T14:09:42;3.40;;;1.63;;
77099;SDS011;66602;48.922;2.414;2023-03-19T14:14:41;2.40;;;1.20;;
77099;SDS011;66602;48.922;2.414;2023-03-19T14:22:56;1.77;;;1.13;;
77099;SDS011;66602;48.922;2.414;2023-03-19T14:29:10;9.15;;;1.58;;
77099;SDS011;66602;48.922;2.414;2023-03-19T14:39:40;1.33;;;1.23;;
77099;SDS011;66602;48.922;2.414;2023-03-19T14:44:48;2.40;;;1.98;;
77099;SDS011;66602;48.922;2.414;2023-03-19T14:52:50;5.85;;;1.52;;
77099;SDS011;66602;48.922;2.414;2023-03-19T14:55:39;5.50;;;2.00;;
77099;SDS011;66602;48.922;2.414;2023-03-19T14:58:08;2.15;;;2.05;;
77099;SDS011;66602;48.922;2.414;2023-03-19T15:00:53;1.98;;;1.60;;
77099;SDS011;66602;48.922;2.414;2023-03-19T15:05:56;3.10;;;1.80;;
77099;SDS011;66602;48.922;2.414;2023-03-19T15:08:41;6.05;;;3.25;;
77099;SDS011;66602;48.922;2.414;2023-03-19T15:13:43;2.78;;;2.58;;
77099;SDS011;66602;48.922;2.414;2023-03-19T15:19:22;2.28;;;1.98;;
77099;SDS011;66602;48.922;2.414;2023-03-19T15:21:50;4.72;;;2.85;;
77099;SDS011;66602;48.922;2.414;2023-03-19T15:24:16;6.60;;;3.15;;
77099;SDS011;66602;48.922;2.414;2023-03-19T15:26:43;3.75;;;3.35;;
77099;SDS011;66602;48.922;2.414;2023-03-19T15:32:12;4.85;;;2.67;;
77099;SDS011;66602;48.922;2.414;2023-03-19T15:34:57;5.57;;;2.35;;
77099;SDS011;66602;48.922;2.414;2023-03-19T15:37:23;1.73;;;1.63;;
77099;SDS011;66602;48.922;2.414;2023-03-19T15:39:52;1.65;;;1.45;;
77099;SDS011;66602;48.922;2.414;2023-03-19T15:42:20;2.28;;;1.90;;
77099;SDS011;66602;48.922;2.414;2023-03-19T15:45:06;5.10;;;1.77;;
77099;SDS011;66602;48.922;2.414;2023-03-19T15:47:35;2.40;;;1.10;;
77099;SDS011;66602;48.922;2.414;2023-03-19T15:50:08;1.60;;;1.50;;
77099;SDS011;66602;48.922;2.414;2023-03-19T15:52:36;2.97;;;1.65;;
77099;SDS011;66602;48.922;2.414;2023-03-19T15:55:05;2.33;;;1.38;;
77099;SDS011;66602;48.922;2.414;2023-03-19T15:57:32;3.97;;;1.50;;
77099;SDS011;66602;48.922;2.414;2023-03-19T16:00:02;2.50;;;1.75;;
77099;SDS011;66602;48.922;2.414;2023-03-19T16:02:30;1.77;;;1.42;;
77099;SDS011;66602;48.922;2.414;2023-03-19T16:04:57;2.10;;;1.70;;
77099;SDS011;66602;48.922;2.414;2023-03-19T16:07:25;1.88;;;1.70;;
77099;SDS011;66602;48.922;2.414;2023-03-19T16:10:00;1.35;;;0.95;;
77099;SDS011;66602;48.922;2.414;2023-03-19T16:12:47;1.42;;;1.00;;
77099;SDS011;66602;48.922;2.414;2023-03-19T16:15:23;2.47;;;1.85;;
77099;SDS011;66602;48.922;2.414;2023-03-19T16:18:08;7.72;;;4.00;;
77099;SDS011;66602;48.922;2.414;2023-03-19T16:21:31;69.43;;;25.17;;
77099;SDS011;66602;48.922;2.414;2023-03-19T16:23:41;11.50;;;3.45;;
77099;SDS011;66602;48.922;2.414;2023-03-19T16:26:14;2.00;;;1.58;;
77099;SDS011;66602;48.922;2.414;2023-03-19T16:28:57;1.40;;;1.30;;
77099;SDS011;66602;48.922;2.414;2023-03-19T16:31:43;2.90;;;1.65;;
77099;SDS011;66602;48.922;2.414;2023-03-19T16:34:36;3.50;;;3.15;;
77099;SDS011;66602;48.922;2.414;2023-03-19T16:39:54;1.27;;;1.17;;
77099;SDS011;66602;48.922;2.414;2023-03-19T16:44:57;1.80;;;1.30;;
77099;SDS011;66602;48.922;2.414;2023-03-19T16:47:27;1.40;;;1.30;;
77099;SDS011;66602;48.922;2.414;2023-03-19T16:49:53;1.10;;;1.10;;
77099;SDS011;66602;48.922;2.414;2023-03-19T16:52:19;1.88;;;1.38;;
77099;SDS011;66602;48.922;2.414;2023-03-19T16:54:47;1.10;;;1.10;;
77099;SDS011;66602;48.922;2.414;2023-03-19T16:57:14;2.05;;;1.20;;
77099;SDS011;66602;48.922;2.414;2023-03-19T16:59:41;3.05;;;1.25;;
77099;SDS011;66602;48.922;2.414;2023-03-19T17:02:14;2.65;;;1.48;;
77099;SDS011;66602;48.922;2.414;2023-03-19T17:04:41;3.08;;;1.08;;
77099;SDS011;66602;48.922;2.414;2023-03-19T17:07:07;4.75;;;1.20;;
77099;SDS011;66602;48.922;2.414;2023-03-19T17:09:34;5.15;;;1.38;;
77099;SDS011;66602;48.922;2.414;2023-03-19T17:12:00;4.07;;;1.23;;
77099;SDS011;66602;48.922;2.414;2023-03-19T17:14:26;3.58;;;1.15;;
77099;SDS011;66602;48.922;2.414;2023-03-19T17:16:54;0.95;;;0.93;;
77099;SDS011;66602;48.922;2.414;2023-03-19T17:19:22;2.10;;;1.10;;
77099;SDS011;66602;48.922;2.414;2023-03-19T17:21:50;1.23;;;0.80;;
77099;SDS011;66602;48.922;2.414;2023-03-19T17:24:29;3.53;;;1.40;;
77099;SDS011;66602;48.922;2.414;2023-03-19T17:26:59;4.43;;;1.00;;
77099;SDS011;66602;48.922;2.414;2023-03-19T17:29:26;2.38;;;1.40;;
77099;SDS011;66602;48.922;2.414;2023-03-19T17:31:53;2.13;;;1.27;;
77099;SDS011;66602;48.922;2.414;2023-03-19T17:34:20;3.95;;;1.90;;
77099;SDS011;66602;48.922;2.414;2023-03-19T17:36:52;1.42;;;1.33;;
77099;SDS011;66602;48.922;2.414;2023-03-19T17:39:20;5.00;;;1.33;;
77099;SDS011;66602;48.922;2.414;2023-03-19T17:41:46;1.25;;;1.15;;
77099;SDS011;66602;48.922;2.414;2023-03-19T17:44:12;1.40;;;1.20;;
77099;SDS011;66602;48.922;2.414;2023-03-19T17:46:41;6.00;;;1.42;;